createdAt,value
2023-08-15T00:00:04.219Z,19.72
2023-08-15T00:01:04.185Z,19.71
2023-08-15T00:02:04.125Z,19.70
2023-08-15T00:03:04.193Z,19.69
2023-08-15T00:04:04.208Z,19.68
2023-08-15T00:05:04.062Z,19.67
2023-08-15T00:06:06.162Z,19.65
2023-08-15T00:07:04.029Z,19.64
2023-08-15T00:08:04.072Z,19.63
2023-08-15T00:09:03.996Z,19.62
2023-08-15T00:10:04.044Z,19.60
2023-08-15T00:11:03.978Z,19.60
2023-08-15T00:12:04.003Z,19.60
2023-08-15T00:13:03.945Z,19.60
2023-08-15T00:14:04.058Z,19.59
2023-08-15T00:15:03.928Z,19.56
2023-08-15T00:16:05.013Z,19.54
2023-08-15T00:17:03.925Z,19.52
2023-08-15T00:18:03.952Z,19.51
2023-08-15T00:19:03.876Z,19.50
2023-08-15T00:20:03.951Z,19.47
2023-08-15T00:21:03.838Z,19.45
2023-08-15T00:22:03.924Z,19.43
2023-08-15T00:23:03.814Z,19.41
2023-08-15T00:24:03.880Z,19.39
2023-08-15T00:25:03.790Z,19.36
2023-08-15T00:26:03.924Z,19.34
2023-08-15T00:27:03.802Z,19.32
2023-08-15T00:28:03.863Z,19.31
2023-08-15T00:29:03.818Z,19.30
2023-08-15T00:30:03.843Z,19.30
2023-08-15T00:31:03.776Z,19.31
2023-08-15T00:32:03.849Z,19.29
2023-08-15T00:33:03.743Z,19.29
2023-08-15T00:34:03.826Z,19.29
2023-08-15T00:35:03.657Z,19.28
2023-08-15T00:36:03.874Z,19.28
2023-08-15T00:37:03.631Z,19.28
2023-08-15T00:38:03.683Z,19.27
2023-08-15T00:39:03.675Z,19.27
2023-08-15T00:40:03.846Z,19.26
2023-08-15T00:41:03.583Z,19.25
2023-08-15T00:42:03.620Z,19.23
2023-08-15T00:43:03.554Z,19.21
2023-08-15T00:44:03.625Z,19.21
2023-08-15T00:45:03.540Z,19.23
2023-08-15T00:46:03.604Z,19.24
2023-08-15T00:47:03.511Z,19.23
2023-08-15T00:48:03.574Z,19.22
2023-08-15T00:49:03.483Z,19.21
2023-08-15T00:50:03.552Z,19.19
2023-08-15T00:51:03.455Z,19.18
2023-08-15T00:52:03.529Z,19.15
2023-08-15T00:53:03.441Z,19.12
2023-08-15T00:54:03.485Z,19.10
2023-08-15T00:55:03.395Z,19.08
2023-08-15T00:56:03.416Z,19.06
2023-08-15T00:57:03.366Z,19.04
2023-08-15T00:58:03.472Z,19.02
2023-08-15T00:59:03.350Z,19.00
2023-08-15T01:00:03.464Z,18.99
2023-08-15T01:01:03.324Z,18.96
2023-08-15T01:02:03.419Z,18.94
2023-08-15T01:03:03.364Z,18.93
2023-08-15T01:04:03.406Z,18.94
2023-08-15T01:05:03.276Z,18.93
2023-08-15T01:06:03.272Z,18.97
2023-08-15T01:07:03.241Z,19.02
2023-08-15T01:08:03.283Z,19.06
2023-08-15T01:09:03.204Z,19.10
2023-08-15T01:10:03.292Z,19.13
2023-08-15T01:11:03.191Z,19.15
2023-08-15T01:12:03.203Z,19.16
2023-08-15T01:13:03.177Z,19.16
2023-08-15T01:14:03.221Z,19.15
2023-08-15T01:15:03.130Z,19.13
2023-08-15T01:16:03.269Z,19.11
2023-08-15T01:17:03.101Z,19.10
2023-08-15T01:18:03.293Z,19.07
2023-08-15T01:19:03.078Z,19.06
2023-08-15T01:20:03.176Z,19.08
2023-08-15T01:21:03.061Z,19.09
2023-08-15T01:22:03.123Z,19.11
2023-08-15T01:23:03.022Z,19.12
2023-08-15T01:24:03.118Z,19.14
2023-08-15T01:25:02.999Z,19.12
2023-08-15T01:26:03.008Z,19.12
2023-08-15T01:27:02.971Z,19.11
2023-08-15T01:28:06.251Z,19.10
2023-08-15T01:29:02.939Z,19.09
2023-08-15T01:30:03.037Z,19.08
2023-08-15T01:31:02.920Z,19.07
2023-08-15T01:32:02.973Z,19.08
2023-08-15T01:33:02.920Z,19.09
2023-08-15T01:34:03.034Z,19.12
2023-08-15T01:35:02.875Z,19.17
2023-08-15T01:36:02.886Z,19.25
2023-08-15T01:37:02.850Z,19.32
2023-08-15T01:38:02.892Z,19.38
2023-08-15T01:39:02.798Z,19.41
2023-08-15T01:40:02.869Z,19.41
2023-08-15T01:41:02.785Z,19.41
2023-08-15T01:42:02.814Z,19.43
2023-08-15T01:43:02.747Z,19.43
2023-08-15T01:44:02.845Z,19.43
2023-08-15T01:45:02.716Z,19.43
2023-08-15T01:46:02.833Z,19.42
2023-08-15T01:47:02.718Z,19.40
2023-08-15T01:48:02.804Z,19.36
2023-08-15T01:49:02.666Z,19.33
2023-08-15T01:50:02.772Z,19.27
2023-08-15T01:51:02.661Z,19.23
2023-08-15T01:52:02.760Z,19.21
2023-08-15T01:53:02.632Z,19.21
2023-08-15T01:54:02.699Z,19.20
2023-08-15T01:55:02.591Z,19.20
2023-08-15T01:56:02.613Z,19.20
2023-08-15T01:57:02.574Z,19.17
2023-08-15T01:58:02.693Z,19.15
2023-08-15T01:59:02.549Z,19.11
2023-08-15T02:00:02.642Z,19.11
2023-08-15T02:01:02.552Z,19.10
2023-08-15T02:02:02.544Z,19.09
2023-08-15T02:03:02.547Z,19.08
2023-08-15T02:04:02.517Z,19.07
2023-08-15T02:05:02.498Z,19.08
2023-08-15T02:06:02.472Z,19.13
2023-08-15T02:07:02.424Z,19.16
2023-08-15T02:08:02.498Z,19.19
2023-08-15T02:09:02.409Z,19.22
2023-08-15T02:10:02.456Z,19.23
2023-08-15T02:11:02.433Z,19.24
2023-08-15T02:12:02.420Z,19.25
2023-08-15T02:13:02.358Z,19.25
2023-08-15T02:14:02.447Z,19.26
2023-08-15T02:15:02.312Z,19.26
2023-08-15T02:16:02.470Z,19.27
2023-08-15T02:17:02.289Z,19.28
2023-08-15T02:18:02.428Z,19.27
2023-08-15T02:19:02.288Z,19.27
2023-08-15T02:20:02.275Z,19.26
2023-08-15T02:21:02.241Z,19.28
2023-08-15T02:22:02.342Z,19.28
2023-08-15T02:23:02.220Z,19.29
2023-08-15T02:24:02.301Z,19.28
2023-08-15T02:25:02.183Z,19.28
2023-08-15T02:26:02.241Z,19.29
2023-08-15T02:27:02.159Z,19.30
2023-08-15T02:28:02.281Z,19.29
2023-08-15T02:29:02.125Z,19.29
2023-08-15T02:30:02.140Z,19.31
2023-08-15T02:31:02.156Z,19.32
2023-08-15T02:32:02.159Z,19.32
2023-08-15T02:33:02.114Z,19.33
2023-08-15T02:34:02.130Z,19.32
2023-08-15T02:35:02.069Z,19.32
2023-08-15T02:36:02.080Z,19.30
2023-08-15T02:37:02.057Z,19.30
2023-08-15T02:38:02.092Z,19.29
2023-08-15T02:39:01.989Z,19.29
2023-08-15T02:40:02.089Z,19.29
2023-08-15T02:41:01.989Z,19.31
2023-08-15T02:42:02.036Z,19.36
2023-08-15T02:43:01.948Z,19.39
2023-08-15T02:44:02.046Z,19.43
2023-08-15T02:45:01.907Z,19.45
2023-08-15T02:46:02.009Z,19.48
2023-08-15T02:47:01.972Z,19.51
2023-08-15T02:48:02.032Z,19.54
2023-08-15T02:49:01.869Z,19.55
2023-08-15T02:50:03.979Z,19.55
2023-08-15T02:51:04.591Z,19.55
2023-08-15T02:52:01.840Z,19.54
2023-08-15T02:53:02.926Z,19.53
2023-08-15T02:54:01.798Z,19.56
2023-08-15T02:55:01.830Z,19.57
2023-08-15T02:56:01.762Z,19.59
2023-08-15T02:57:01.841Z,19.62
2023-08-15T02:58:01.790Z,19.64
2023-08-15T02:59:01.841Z,19.65
2023-08-15T03:00:01.730Z,19.65
2023-08-15T03:01:01.798Z,19.65
2023-08-15T03:02:01.697Z,19.65
2023-08-15T03:03:01.802Z,19.65
2023-08-15T03:04:01.682Z,19.65
2023-08-15T03:05:01.682Z,19.63
2023-08-15T03:06:01.656Z,19.62
2023-08-15T03:07:02.726Z,19.61
2023-08-15T03:08:01.634Z,19.60
2023-08-15T03:09:01.621Z,19.60
2023-08-15T03:10:01.622Z,19.61
2023-08-15T03:11:01.621Z,19.61
2023-08-15T03:12:01.553Z,19.63
2023-08-15T03:13:01.636Z,19.64
2023-08-15T03:14:01.525Z,19.63
2023-08-15T03:15:01.552Z,19.61
2023-08-15T03:16:01.528Z,19.58
2023-08-15T03:17:01.587Z,19.54
2023-08-15T03:18:01.539Z,19.51
2023-08-15T03:19:01.481Z,19.49
2023-08-15T03:20:01.439Z,19.48
2023-08-15T03:21:01.484Z,19.46
2023-08-15T03:22:01.457Z,19.49
2023-08-15T03:23:01.515Z,19.51
2023-08-15T03:24:01.386Z,19.53
2023-08-15T03:25:01.438Z,19.55
2023-08-15T03:26:01.364Z,19.55
2023-08-15T03:27:04.202Z,19.55
2023-08-15T03:28:01.354Z,19.56
2023-08-15T03:29:01.349Z,19.57
2023-08-15T03:30:01.310Z,19.58
2023-08-15T03:31:02.424Z,19.58
2023-08-15T03:32:01.303Z,19.56
2023-08-15T03:33:01.410Z,19.54
2023-08-15T03:34:01.285Z,19.54
2023-08-15T03:35:01.285Z,19.52
2023-08-15T03:36:01.224Z,19.50
2023-08-15T03:37:01.298Z,19.48
2023-08-15T03:38:01.194Z,19.47
2023-08-15T03:39:01.222Z,19.46
2023-08-15T03:40:01.195Z,19.45
2023-08-15T03:41:01.231Z,19.43
2023-08-15T03:42:01.150Z,19.42
2023-08-15T03:43:01.237Z,19.41
2023-08-15T03:44:01.117Z,19.39
2023-08-15T03:45:01.171Z,19.36
2023-08-15T03:46:01.205Z,19.33
2023-08-15T03:47:02.195Z,19.29
2023-08-15T03:48:01.142Z,19.25
2023-08-15T03:49:01.094Z,19.20
2023-08-15T03:50:01.190Z,19.18
2023-08-15T03:51:01.107Z,19.15
2023-08-15T03:52:01.039Z,19.10
2023-08-15T03:53:01.107Z,19.06
2023-08-15T03:54:00.988Z,19.05
2023-08-15T03:55:01.020Z,19.09
2023-08-15T03:56:00.976Z,19.14
2023-08-15T03:57:01.044Z,19.20
2023-08-15T03:58:00.946Z,19.26
2023-08-15T03:59:00.956Z,19.31
2023-08-15T04:00:00.898Z,19.34
2023-08-15T04:01:00.978Z,19.38
2023-08-15T04:02:00.926Z,19.41
2023-08-15T04:03:00.945Z,19.44
2023-08-15T04:04:00.980Z,19.44
2023-08-15T04:05:00.888Z,19.43
2023-08-15T04:06:00.829Z,19.42
2023-08-15T04:07:00.914Z,19.41
2023-08-15T04:08:00.818Z,19.39
2023-08-15T04:09:00.817Z,19.39
2023-08-15T04:10:00.788Z,19.39
2023-08-15T04:11:00.822Z,19.39
2023-08-15T04:12:00.731Z,19.40
2023-08-15T04:13:00.752Z,19.42
2023-08-15T04:14:00.703Z,19.41
2023-08-15T04:15:01.780Z,19.39
2023-08-15T04:16:00.735Z,19.37
2023-08-15T04:17:00.767Z,19.33
2023-08-15T04:18:00.698Z,19.29
2023-08-15T04:19:00.685Z,19.25
2023-08-15T04:20:00.676Z,19.22
2023-08-15T04:21:00.698Z,19.23
2023-08-15T04:22:00.649Z,19.26
2023-08-15T04:23:00.607Z,19.30
2023-08-15T04:24:00.580Z,19.33
2023-08-15T04:25:00.641Z,19.36
2023-08-15T04:26:00.591Z,19.41
2023-08-15T04:27:00.713Z,19.47
2023-08-15T04:28:00.571Z,19.53
2023-08-15T04:29:00.558Z,19.59
2023-08-15T04:30:00.508Z,19.65
2023-08-15T04:31:00.559Z,19.69
2023-08-15T04:32:00.524Z,19.71
2023-08-15T04:33:00.506Z,19.73
2023-08-15T04:34:00.468Z,19.74
2023-08-15T04:35:00.530Z,19.74
2023-08-15T04:36:00.490Z,19.75
2023-08-15T04:37:00.521Z,19.76
2023-08-15T04:38:00.389Z,19.77
2023-08-15T04:39:00.440Z,19.78
2023-08-15T04:40:00.509Z,19.79
2023-08-15T04:41:00.446Z,19.82
2023-08-15T04:42:00.331Z,19.85
2023-08-15T04:43:00.352Z,19.87
2023-08-15T04:44:00.306Z,19.90
2023-08-15T04:45:00.397Z,19.94
2023-08-15T04:46:00.409Z,19.99
2023-08-15T04:47:00.373Z,20.04
2023-08-15T04:48:00.278Z,20.09
2023-08-15T04:49:01.329Z,20.13
2023-08-15T04:50:00.226Z,20.17
2023-08-15T04:51:00.316Z,20.18
2023-08-15T04:52:00.224Z,20.21
2023-08-15T04:53:00.213Z,20.24
2023-08-15T04:54:00.184Z,20.28
2023-08-15T04:55:00.229Z,20.30
2023-08-15T04:56:00.166Z,20.30
2023-08-15T04:57:00.143Z,20.31
2023-08-15T04:58:00.135Z,20.32
2023-08-15T04:59:00.188Z,20.35
2023-08-15T05:00:00.087Z,20.36
2023-08-15T05:01:00.224Z,20.38
2023-08-15T05:02:00.075Z,20.39
2023-08-15T05:03:00.125Z,20.40
2023-08-15T05:04:00.085Z,20.44
2023-08-15T05:05:00.166Z,20.48
2023-08-15T05:06:00.006Z,20.52
2023-08-15T05:07:00.156Z,20.52
2023-08-15T05:07:59.991Z,20.53
2023-08-15T05:09:00.038Z,20.58
2023-08-15T05:10:00.046Z,20.63
2023-08-15T05:11:00.065Z,20.65
2023-08-15T05:11:59.926Z,20.68
2023-08-15T05:12:59.957Z,20.71
2023-08-15T05:13:59.908Z,20.73
2023-08-15T05:14:59.983Z,20.74
2023-08-15T05:15:59.925Z,20.75
2023-08-15T05:16:59.882Z,20.75
2023-08-15T05:17:59.958Z,20.78
2023-08-15T05:18:59.898Z,20.80
2023-08-15T05:19:59.837Z,20.82
2023-08-15T05:20:59.914Z,20.84
2023-08-15T05:22:00.129Z,20.88
2023-08-15T05:22:59.844Z,20.93
2023-08-15T05:23:59.782Z,20.97
2023-08-15T05:24:59.852Z,21.01
2023-08-15T05:25:59.770Z,21.04
2023-08-15T05:26:59.758Z,21.07
2023-08-15T05:27:59.778Z,21.09
2023-08-15T05:28:59.763Z,21.13
2023-08-15T05:29:59.702Z,21.17
2023-08-15T05:30:59.828Z,21.22
2023-08-15T05:31:59.673Z,21.26
2023-08-15T05:32:59.760Z,21.29
2023-08-15T05:33:59.661Z,21.32
2023-08-15T05:34:59.728Z,21.33
2023-08-15T05:35:59.622Z,21.36
2023-08-15T05:36:59.726Z,21.38
2023-08-15T05:37:59.606Z,21.40
2023-08-15T05:38:59.643Z,21.42
2023-08-15T05:40:01.283Z,21.44
2023-08-15T05:40:59.551Z,21.46
2023-08-15T05:41:59.554Z,21.48
2023-08-15T05:42:59.540Z,21.50
2023-08-15T05:43:59.568Z,21.53
2023-08-15T05:44:59.500Z,21.54
2023-08-15T05:45:59.520Z,21.57
2023-08-15T05:46:59.534Z,21.58
2023-08-15T05:47:59.550Z,21.60
2023-08-15T05:48:59.437Z,21.63
2023-08-15T05:49:59.508Z,21.65
2023-08-15T05:50:59.434Z,21.68
2023-08-15T05:51:59.485Z,21.70
2023-08-15T05:52:59.389Z,21.71
2023-08-15T05:53:59.448Z,21.71
2023-08-15T05:54:59.368Z,21.72
2023-08-15T05:55:59.451Z,21.75
2023-08-15T05:56:59.325Z,21.77
2023-08-15T05:57:59.421Z,21.79
2023-08-15T05:58:59.300Z,21.82
2023-08-15T05:59:59.391Z,21.85
2023-08-15T06:00:59.313Z,21.88
2023-08-15T06:01:59.284Z,21.92
2023-08-15T06:02:59.383Z,21.97
2023-08-15T06:03:59.418Z,21.99
2023-08-15T06:04:59.230Z,22.02
2023-08-15T06:05:59.217Z,22.04
2023-08-15T06:06:59.200Z,22.06
2023-08-15T06:07:59.449Z,22.07
2023-08-15T06:08:59.205Z,22.07
2023-08-15T06:09:59.204Z,22.09
2023-08-15T06:10:59.128Z,22.11
2023-08-15T06:11:59.167Z,22.13
2023-08-15T06:12:59.104Z,22.15
2023-08-15T06:13:59.172Z,22.16
2023-08-15T06:14:59.080Z,22.17
2023-08-15T06:15:59.141Z,22.19
2023-08-15T06:16:59.087Z,22.22
2023-08-15T06:17:59.144Z,22.24
2023-08-15T06:18:59.021Z,22.26
2023-08-15T06:19:59.112Z,22.28
2023-08-15T06:20:59.014Z,22.30
2023-08-15T06:21:59.077Z,22.32
2023-08-15T06:22:58.994Z,22.33
2023-08-15T06:23:59.075Z,22.34
2023-08-15T06:24:58.937Z,22.36
2023-08-15T06:25:58.956Z,22.37
2023-08-15T06:26:58.921Z,22.38
2023-08-15T06:27:59.031Z,22.39
2023-08-15T06:28:58.897Z,22.41
2023-08-15T06:29:58.978Z,22.42
2023-08-15T06:30:58.883Z,22.44
2023-08-15T06:31:58.893Z,22.47
2023-08-15T06:32:58.863Z,22.49
2023-08-15T06:33:58.877Z,22.51
2023-08-15T06:34:58.807Z,22.51
2023-08-15T06:35:58.832Z,22.52
2023-08-15T06:36:58.796Z,22.52
2023-08-15T06:38:19.846Z,22.53
2023-08-15T06:38:58.767Z,22.55
2023-08-15T06:39:58.813Z,22.57
2023-08-15T06:40:58.741Z,22.57
2023-08-15T06:41:58.770Z,22.59
2023-08-15T06:42:58.700Z,22.61
2023-08-15T06:43:58.777Z,22.63
2023-08-15T06:44:58.672Z,22.66
2023-08-15T06:45:58.778Z,22.68
2023-08-15T06:46:58.646Z,22.70
2023-08-15T06:47:58.734Z,22.71
2023-08-15T06:48:58.622Z,22.74
2023-08-15T06:49:58.724Z,22.76
2023-08-15T06:50:58.595Z,22.79
2023-08-15T06:51:58.689Z,22.81
2023-08-15T06:52:58.568Z,22.84
2023-08-15T06:53:58.999Z,22.87
2023-08-15T06:54:58.549Z,22.90
2023-08-15T06:55:58.552Z,22.93
2023-08-15T06:56:58.527Z,22.95
2023-08-15T06:57:58.629Z,22.98
2023-08-15T06:58:58.494Z,22.99
2023-08-15T06:59:58.603Z,22.99
2023-08-15T07:00:58.512Z,22.99
2023-08-15T07:01:58.498Z,23.00
2023-08-15T07:02:58.541Z,23.02
2023-08-15T07:03:58.475Z,23.02
2023-08-15T07:04:58.413Z,23.04
2023-08-15T07:05:58.538Z,23.07
2023-08-15T07:06:58.377Z,23.08
2023-08-15T07:07:58.465Z,23.11
2023-08-15T07:08:58.360Z,23.13
2023-08-15T07:09:58.417Z,23.14
2023-08-15T07:10:58.344Z,23.16
2023-08-15T07:11:58.366Z,23.17
2023-08-15T07:12:58.299Z,23.16
2023-08-15T07:13:58.382Z,23.16
2023-08-15T07:14:58.288Z,23.16
2023-08-15T07:15:58.618Z,23.16
2023-08-15T07:16:58.251Z,23.13
2023-08-15T07:17:58.376Z,23.10
2023-08-15T07:18:58.236Z,23.09
2023-08-15T07:19:58.220Z,23.08
2023-08-15T07:20:58.196Z,23.06
2023-08-15T07:21:58.287Z,23.03
2023-08-15T07:22:58.175Z,23.02
2023-08-15T07:23:58.247Z,23.03
2023-08-15T07:24:58.152Z,23.05
2023-08-15T07:25:58.158Z,23.07
2023-08-15T07:26:58.105Z,23.07
2023-08-15T07:27:58.229Z,23.07
2023-08-15T07:28:58.093Z,23.08
2023-08-15T07:29:58.189Z,23.10
2023-08-15T07:30:58.065Z,23.13
2023-08-15T07:31:58.202Z,23.15
2023-08-15T07:32:58.073Z,23.14
2023-08-15T07:33:59.101Z,23.14
2023-08-15T07:34:58.169Z,23.17
2023-08-15T07:35:58.033Z,23.19
2023-08-15T07:36:57.976Z,23.21
2023-08-15T07:37:59.385Z,23.22
2023-08-15T07:38:57.962Z,23.21
2023-08-15T07:39:58.005Z,23.24
2023-08-15T07:40:57.926Z,23.27
2023-08-15T07:41:57.972Z,23.29
2023-08-15T07:42:57.932Z,23.29
2023-08-15T07:43:57.985Z,23.28
2023-08-15T07:44:57.872Z,23.25
2023-08-15T07:45:57.976Z,23.22
2023-08-15T07:46:57.845Z,23.21
2023-08-15T07:47:57.929Z,23.23
2023-08-15T07:48:58.392Z,23.24
2023-08-15T07:49:57.818Z,23.26
2023-08-15T07:50:57.798Z,23.32
2023-08-15T07:51:57.900Z,23.36
2023-08-15T07:52:57.781Z,23.41
2023-08-15T07:53:57.854Z,23.45
2023-08-15T07:54:57.744Z,23.49
2023-08-15T07:55:57.768Z,23.53
2023-08-15T07:56:57.716Z,23.54
2023-08-15T07:57:57.845Z,23.55
2023-08-15T07:58:57.696Z,23.58
2023-08-15T07:59:57.706Z,23.61
2023-08-15T08:00:57.664Z,23.59
2023-08-15T08:01:57.728Z,23.59
2023-08-15T08:02:57.720Z,23.61
2023-08-15T08:03:57.698Z,23.65
2023-08-15T08:04:57.648Z,23.67
2023-08-15T08:05:57.637Z,23.70
2023-08-15T08:06:57.637Z,23.72
2023-08-15T08:07:57.655Z,23.71
2023-08-15T08:08:57.553Z,23.72
2023-08-15T08:09:57.615Z,23.72
2023-08-15T08:10:57.537Z,23.76
2023-08-15T08:11:57.574Z,23.82
2023-08-15T08:12:57.511Z,23.88
2023-08-15T08:13:57.602Z,23.91
2023-08-15T08:14:58.131Z,23.88
2023-08-15T08:15:57.565Z,23.83
2023-08-15T08:16:57.447Z,23.80
2023-08-15T08:17:59.580Z,23.75
2023-08-15T08:18:57.427Z,23.70
2023-08-15T08:19:57.464Z,23.69
2023-08-15T08:20:57.851Z,23.71
2023-08-15T08:21:57.613Z,23.74
2023-08-15T08:22:57.368Z,23.79
2023-08-15T08:23:57.470Z,23.83
2023-08-15T08:24:57.345Z,23.89
2023-08-15T08:25:57.382Z,23.95
2023-08-15T08:26:57.322Z,23.96
2023-08-15T08:27:57.484Z,23.97
2023-08-15T08:28:57.297Z,23.98
2023-08-15T08:29:57.310Z,24.02
2023-08-15T08:30:57.271Z,24.02
2023-08-15T08:31:57.519Z,23.99
2023-08-15T08:32:57.295Z,23.96
2023-08-15T08:33:57.276Z,23.97
2023-08-15T08:34:57.209Z,23.96
2023-08-15T08:35:57.245Z,23.90
2023-08-15T08:36:57.179Z,23.82
2023-08-15T08:37:57.275Z,23.75
2023-08-15T08:38:57.160Z,23.70
2023-08-15T08:39:57.236Z,23.68
2023-08-15T08:40:57.138Z,23.64
2023-08-15T08:41:57.202Z,23.60
2023-08-15T08:42:57.117Z,23.58
2023-08-15T08:43:57.210Z,23.55
2023-08-15T08:45:57.197Z,23.55
2023-08-15T08:46:57.064Z,23.55
2023-08-15T08:47:57.121Z,23.56
2023-08-15T08:48:57.034Z,23.55
2023-08-15T08:49:57.042Z,23.60
2023-08-15T08:50:57.051Z,23.68
2023-08-15T08:51:57.113Z,23.74
2023-08-15T08:52:56.982Z,23.80
2023-08-15T08:53:57.072Z,23.88
2023-08-15T08:54:57.888Z,23.95
2023-08-15T08:55:56.975Z,24.03
2023-08-15T08:56:56.928Z,24.09
2023-08-15T08:57:57.044Z,24.12
2023-08-15T08:58:56.898Z,24.11
2023-08-15T08:59:56.901Z,24.06
2023-08-15T09:00:56.915Z,24.01
2023-08-15T09:01:56.921Z,24.01
2023-08-15T09:02:56.875Z,24.03
2023-08-15T09:03:56.888Z,24.07
2023-08-15T09:04:56.810Z,24.10
2023-08-15T09:05:57.874Z,24.09
2023-08-15T09:06:56.796Z,24.12
2023-08-15T09:07:56.866Z,24.15
2023-08-15T09:08:56.797Z,24.14
2023-08-15T09:09:56.844Z,24.07
2023-08-15T09:10:56.724Z,23.97
2023-08-15T09:11:56.828Z,23.88
2023-08-15T09:12:56.707Z,23.83
2023-08-15T09:13:56.811Z,23.83
2023-08-15T09:14:56.691Z,23.93
2023-08-15T09:15:56.869Z,24.01
2023-08-15T09:16:56.743Z,24.05
2023-08-15T09:17:56.772Z,24.07
2023-08-15T09:18:56.658Z,24.08
2023-08-15T09:19:56.642Z,24.12
2023-08-15T09:20:56.616Z,24.12
2023-08-15T09:21:56.736Z,24.08
2023-08-15T09:22:56.585Z,24.03
2023-08-15T09:23:56.579Z,23.97
2023-08-15T09:24:56.555Z,24.02
2023-08-15T09:25:56.591Z,24.03
2023-08-15T09:26:56.509Z,23.99
2023-08-15T09:27:56.570Z,23.94
2023-08-15T09:28:56.488Z,23.93
2023-08-15T09:29:56.533Z,23.91
2023-08-15T09:30:56.485Z,23.90
2023-08-15T09:31:57.558Z,23.86
2023-08-15T09:32:56.481Z,23.87
2023-08-15T09:33:56.500Z,23.88
2023-08-15T09:34:56.406Z,23.91
2023-08-15T09:35:59.096Z,23.91
2023-08-15T09:36:56.379Z,23.90
2023-08-15T09:37:56.528Z,23.84
2023-08-15T09:38:56.349Z,23.75
2023-08-15T09:39:56.452Z,23.65
2023-08-15T09:40:56.351Z,23.56
2023-08-15T09:41:56.390Z,23.48
2023-08-15T09:42:56.341Z,23.41
2023-08-15T09:43:56.301Z,23.40
2023-08-15T09:44:56.271Z,23.38
2023-08-15T09:45:56.394Z,23.43
2023-08-15T09:46:56.280Z,23.47
2023-08-15T09:47:56.396Z,23.52
2023-08-15T09:48:56.234Z,23.59
2023-08-15T09:49:56.251Z,23.71
2023-08-15T09:50:56.225Z,23.81
2023-08-15T09:51:56.222Z,23.91
2023-08-15T09:52:56.162Z,23.98
2023-08-15T09:53:56.282Z,23.99
2023-08-15T09:54:56.147Z,23.95
2023-08-15T09:55:56.188Z,23.88
2023-08-15T09:56:56.117Z,23.78
2023-08-15T09:57:56.161Z,23.68
2023-08-15T09:58:56.085Z,23.61
2023-08-15T09:59:56.122Z,23.63
2023-08-15T10:00:56.099Z,23.68
2023-08-15T10:01:56.127Z,23.70
2023-08-15T10:02:56.052Z,23.74
2023-08-15T10:03:56.137Z,23.82
2023-08-15T10:04:56.005Z,23.92
2023-08-15T10:05:56.063Z,23.98
2023-08-15T10:06:55.975Z,24.08
2023-08-15T10:07:56.079Z,24.10
2023-08-15T10:08:55.956Z,24.04
2023-08-15T10:09:56.039Z,24.02
2023-08-15T10:10:55.925Z,24.01
2023-08-15T10:11:56.746Z,24.01
2023-08-15T10:12:55.898Z,24.09
2023-08-15T10:13:55.907Z,24.31
2023-08-15T10:14:55.878Z,24.53
2023-08-15T10:15:56.021Z,24.74
2023-08-15T10:16:55.905Z,24.84
2023-08-15T10:17:55.993Z,24.81
2023-08-15T10:18:55.817Z,24.75
2023-08-15T10:19:55.861Z,24.59
2023-08-15T10:20:55.791Z,24.41
2023-08-15T10:21:55.936Z,24.29
2023-08-15T10:22:55.821Z,24.24
2023-08-15T10:23:55.778Z,24.24
2023-08-15T10:24:55.743Z,24.40
2023-08-15T10:25:57.899Z,24.74
2023-08-15T10:26:55.709Z,25.08
2023-08-15T10:27:55.780Z,25.25
2023-08-15T10:28:55.689Z,25.38
2023-08-15T10:29:55.728Z,25.40
2023-08-15T10:30:55.705Z,25.46
2023-08-15T10:31:55.737Z,25.45
2023-08-15T10:32:55.690Z,25.33
2023-08-15T10:33:55.704Z,25.18
2023-08-15T10:34:55.612Z,25.01
2023-08-15T10:35:55.733Z,24.81
2023-08-15T10:36:55.591Z,24.71
2023-08-15T10:37:55.680Z,24.77
2023-08-15T10:38:55.564Z,24.81
2023-08-15T10:39:55.647Z,24.92
2023-08-15T10:40:55.555Z,24.98
2023-08-15T10:41:55.601Z,25.08
2023-08-15T10:42:55.506Z,25.22
2023-08-15T10:43:55.561Z,25.28
2023-08-15T10:44:55.474Z,25.26
2023-08-15T10:45:55.676Z,25.23
2023-08-15T10:46:55.444Z,25.21
2023-08-15T10:47:55.591Z,25.35
2023-08-15T10:49:03.101Z,25.48
2023-08-15T10:49:56.409Z,25.51
2023-08-15T10:50:55.465Z,25.50
2023-08-15T10:51:55.393Z,25.46
2023-08-15T10:52:55.500Z,25.50
2023-08-15T10:53:55.354Z,25.60
2023-08-15T10:54:55.390Z,25.63
2023-08-15T10:55:55.333Z,25.73
2023-08-15T10:56:55.408Z,25.99
2023-08-15T10:57:55.336Z,26.17
2023-08-15T10:58:55.328Z,26.27
2023-08-15T10:59:55.280Z,26.38
2023-08-15T11:00:55.338Z,26.47
2023-08-15T11:01:55.275Z,26.55
2023-08-15T11:02:55.378Z,26.67
2023-08-15T11:03:55.336Z,26.76
2023-08-15T11:04:55.319Z,26.83
2023-08-15T11:05:55.203Z,26.97
2023-08-15T11:06:55.207Z,27.13
2023-08-15T11:07:55.285Z,27.16
2023-08-15T11:08:55.165Z,27.24
2023-08-15T11:09:55.261Z,27.16
2023-08-15T11:10:55.129Z,27.04
2023-08-15T11:11:55.212Z,26.99
2023-08-15T11:12:55.096Z,27.02
2023-08-15T11:13:55.124Z,27.01
2023-08-15T11:14:55.082Z,27.04
2023-08-15T11:15:55.198Z,27.04
2023-08-15T11:16:55.070Z,27.13
2023-08-15T11:17:55.189Z,27.26
2023-08-15T11:18:55.032Z,27.27
2023-08-15T11:19:55.062Z,27.31
2023-08-15T11:20:54.998Z,27.38
2023-08-15T11:21:55.038Z,27.35
2023-08-15T11:22:54.968Z,27.21
2023-08-15T11:23:54.987Z,27.03
2023-08-15T11:24:54.945Z,26.80
2023-08-15T11:25:55.021Z,26.61
2023-08-15T11:26:54.919Z,26.62
2023-08-15T11:27:54.973Z,26.76
2023-08-15T11:28:54.890Z,26.88
2023-08-15T11:29:54.931Z,27.06
2023-08-15T11:30:55.238Z,27.34
2023-08-15T11:31:54.985Z,27.54
2023-08-15T11:32:54.874Z,27.73
2023-08-15T11:33:54.908Z,27.86
2023-08-15T11:34:56.068Z,27.92
2023-08-15T11:35:54.873Z,27.72
2023-08-15T11:36:54.794Z,27.65
2023-08-15T11:37:54.887Z,27.71
2023-08-15T11:38:54.757Z,27.76
2023-08-15T11:39:54.945Z,27.84
2023-08-15T11:40:54.729Z,27.97
2023-08-15T11:41:54.814Z,28.01
2023-08-15T11:42:54.715Z,27.88
2023-08-15T11:43:54.740Z,27.80
2023-08-15T11:44:54.681Z,27.81
2023-08-15T11:45:54.815Z,27.94
2023-08-15T11:46:56.310Z,28.15
2023-08-15T11:47:54.801Z,28.37
2023-08-15T11:48:54.625Z,28.52
2023-08-15T11:49:54.669Z,28.44
2023-08-15T11:50:54.599Z,28.28
2023-08-15T11:51:55.663Z,28.10
2023-08-15T11:52:54.578Z,28.02
2023-08-15T11:53:54.604Z,28.14
2023-08-15T11:54:54.559Z,28.38
2023-08-15T11:55:54.636Z,28.62
2023-08-15T11:56:54.789Z,28.71
2023-08-15T11:57:54.585Z,28.60
2023-08-15T11:58:54.512Z,28.50
2023-08-15T11:59:54.540Z,28.43
2023-08-15T12:00:54.507Z,28.48
2023-08-15T12:01:54.558Z,28.49
2023-08-15T12:02:54.665Z,28.39
2023-08-15T12:03:54.584Z,28.30
2023-08-15T12:04:54.432Z,28.13
2023-08-15T12:05:54.494Z,27.83
2023-08-15T12:06:54.395Z,27.71
2023-08-15T12:07:54.404Z,27.73
2023-08-15T12:08:54.365Z,27.76
2023-08-15T12:09:54.462Z,27.78
2023-08-15T12:10:54.337Z,27.93
2023-08-15T12:11:54.432Z,28.19
2023-08-15T12:12:54.318Z,28.42
2023-08-15T12:13:54.344Z,28.56
2023-08-15T12:14:54.286Z,28.65
2023-08-15T12:15:54.448Z,28.52
2023-08-15T12:16:54.271Z,28.28
2023-08-15T12:17:54.314Z,28.10
2023-08-15T12:18:54.233Z,27.84
2023-08-15T12:19:54.274Z,27.64
2023-08-15T12:20:54.206Z,27.52
2023-08-15T12:21:54.258Z,27.49
2023-08-15T12:22:54.199Z,27.73
2023-08-15T12:23:54.204Z,28.13
2023-08-15T12:24:54.205Z,28.45
2023-08-15T12:25:56.237Z,28.65
2023-08-15T12:26:54.141Z,28.81
2023-08-15T12:27:54.188Z,29.06
2023-08-15T12:28:54.107Z,29.34
2023-08-15T12:30:13.406Z,29.52
2023-08-15T12:30:55.078Z,29.50
2023-08-15T12:31:54.281Z,29.40
2023-08-15T12:32:54.100Z,29.40
2023-08-15T12:33:54.128Z,29.50
2023-08-15T12:34:54.033Z,29.68
2023-08-15T12:35:54.097Z,29.96
2023-08-15T12:36:54.007Z,30.14
2023-08-15T12:37:54.011Z,30.26
2023-08-15T12:38:53.984Z,30.12
2023-08-15T12:39:54.084Z,29.78
2023-08-15T12:40:53.954Z,29.42
2023-08-15T12:41:54.044Z,29.18
2023-08-15T12:42:53.919Z,28.97
2023-08-15T12:43:53.941Z,28.89
2023-08-15T12:44:53.907Z,29.03
2023-08-15T12:45:54.128Z,29.08
2023-08-15T12:46:53.860Z,28.97
2023-08-15T12:47:53.957Z,28.81
2023-08-15T12:48:53.834Z,28.82
2023-08-15T12:49:53.901Z,28.82
2023-08-15T12:50:53.820Z,28.87
2023-08-15T12:51:53.848Z,29.13
2023-08-15T12:52:53.791Z,29.37